Time;durP1;ratioP1;P1;durP2;ratioP2;P2;SDS_P1;SDS_P2;PMS_P1;PMS_P2;Temp;Humidity;BMP_temperature;BMP_pressure;BME280_temperature;BME280_humidity;BME280_pressure;Samples;Min_cycle;Max_cycle;Signal;HPM_P1;HPM_P2
2021/09/02 00:01:32;;;;;;;;;;;;;;;17.10;62.42;98408.00;3313744;29;19972;-71
2021/09/02 00:03:13;;;;;;;;;;;;;;;17.08;62.54;98409.34;3315072;29;19929;-70
2021/09/02 00:04:54;;;;;;;;;;;;;;;17.05;62.51;98412.59;3317351;29;20024;-72
2021/09/02 00:06:34;;;;;;;;;;;;;;;17.04;62.70;98402.88;3313877;29;19952;-70
2021/09/02 00:08:15;;;;;;;;;;;;;;;17.05;62.62;98401.81;3314072;29;19933;-71
2021/09/02 00:09:55;;;;;;;;;;;;;;;17.09;62.37;98405.56;3312589;29;20413;-72
2021/09/02 00:11:36;;;;;;;;;;;;;;;17.12;62.01;98399.69;3313243;29;19979;-72
2021/09/02 00:13:16;;;;;;;;;;;;;;;17.09;62.38;98400.19;3313353;29;20425;-72
2021/09/02 00:14:57;;;;;;;;;;;;;;;17.08;62.00;98404.78;3312944;29;19929;-73
2021/09/02 00:16:37;;;;;;;;;;;;;;;17.10;62.08;98399.13;3313235;29;19929;-73
2021/09/02 00:18:18;;;;;;;;;;;;;;;17.11;61.83;98400.75;3313501;29;20401;-72
2021/09/02 00:19:58;;;;;;;;;;;;;;;17.12;61.78;98405.06;3313488;29;20356;-74
2021/09/02 00:21:39;;;;;;;;;;;;;;;17.11;61.70;98400.75;3313228;29;19929;-73
2021/09/02 00:23:19;;;;;;;;;;;;;;;17.10;61.76;98402.63;3313474;29;19929;-70
2021/09/02 00:25:00;;;;;;;;;;;;;;;17.10;61.42;98396.44;3313304;29;19929;-72
2021/09/02 00:26:42;;;;;;;;;;;;;;;17.09;61.60;98400.19;3312329;29;19929;-70
2021/09/02 00:28:23;;;;;;;;;;;;;;;17.09;61.65;98400.19;3313192;29;19936;-71
2021/09/02 00:30:04;;;;;;;;;;;;;;;17.08;61.49;98394.00;3313367;29;19929;-72
2021/09/02 00:31:44;;;;;;;;;;;;;;;17.09;61.34;98389.41;3313373;29;19929;-74
2021/09/02 00:33:25;;;;;;;;;;;;;;;17.10;61.27;98393.75;3313217;29;20423;-71
2021/09/02 00:35:06;;;;;;;;;;;;;;;17.12;61.24;98394.28;3313186;29;19929;-71
2021/09/02 00:36:46;;;;;;;;;;;;;;;17.15;61.35;98399.13;3313220;29;19936;-72
2021/09/02 00:38:27;;;;;;;;;;;;;;;17.16;61.05;98395.34;3313266;29;19929;-74
2021/09/02 00:40:08;;;;;;;;;;;;;;;17.12;61.20;98391.59;3324987;29;20440;-71
2021/09/02 00:41:48;;;;;;;;;;;;;;;17.12;60.99;98388.91;3315370;29;19929;-70
2021/09/02 00:43:39;;;;;;;;;;;;;;;17.13;61.01;98398.59;3313040;29;20090;-69
2021/09/02 00:45:19;;;;;;;;;;;;;;;17.19;60.89;98400.19;3313120;29;19929;-72
2021/09/02 00:47:01;;;;;;;;;;;;;;;17.18;60.87;98393.22;3313107;29;19964;-73
2021/09/02 00:48:42;;;;;;;;;;;;;;;17.16;61.03;98387.28;3312990;29;19936;-72
2021/09/02 00:50:22;;;;;;;;;;;;;;;17.12;61.16;98389.72;3313248;29;19929;-71
2021/09/02 00:52:03;;;;;;;;;;;;;;;17.10;61.18;98391.06;3313022;29;19975;-72
2021/09/02 00:53:45;;;;;;;;;;;;;;;17.06;60.82;98387.28;3312841;29;20394;-71
2021/09/02 00:55:25;;;;;;;;;;;;;;;16.99;60.99;98391.06;3313101;29;19935;-73
2021/09/02 00:57:15;;;;;;;;;;;;;;;16.97;61.16;98390.50;3312910;29;20016;-72
2021/09/02 00:58:55;;;;;;;;;;;;;;;16.95;60.97;98384.56;3312702;29;20309;-71
2021/09/02 01:00:36;;;;;;;;;;;;;;;16.95;61.25;98387.25;3312924;29;19930;-72
2021/09/02 01:02:17;;;;;;;;;;;;;;;16.97;61.20;98381.63;3311812;29;19970;-71
2021/09/02 01:03:57;;;;;;;;;;;;;;;17.03;61.03;98385.13;3312969;29;19936;-72
2021/09/02 01:05:38;;;;;;;;;;;;;;;17.05;61.23;98393.75;3311847;29;19936;-72
2021/09/02 01:07:22;;;;;;;;;;;;;;;17.04;60.81;98392.13;3312752;29;19929;-72
2021/09/02 01:09:03;;;;;;;;;;;;;;;17.00;60.96;98400.72;3313154;29;19933;-72
2021/09/02 01:10:44;;;;;;;;;;;;;;;17.03;60.76;98401.28;3311749;29;20035;-72
2021/09/02 01:12:43;;;;;;;;;;;;;;;17.03;60.75;98402.06;3322107;29;19951;-73
2021/09/02 01:14:23;;;;;;;;;;;;;;;17.04;60.83;98405.56;3312855;29;19945;-72
2021/09/02 01:16:04;;;;;;;;;;;;;;;17.06;60.74;98403.44;3312925;29;19929;-78
2021/09/02 01:17:46;;;;;;;;;;;;;;;17.09;60.71;98405.56;3312692;29;19929;-74
2021/09/02 01:19:26;;;;;;;;;;;;;;;17.11;60.73;98408.81;3312983;29;20313;-71
2021/09/02 01:21:07;;;;;;;;;;;;;;;17.10;60.46;98402.63;3324238;29;19985;-71
2021/09/02 01:22:48;;;;;;;;;;;;;;;17.11;60.72;98400.75;3324337;29;19929;-71
2021/09/02 01:24:28;;;;;;;;;;;;;;;17.11;60.58;98417.69;3314791;29;19951;-70
2021/09/02 01:26:15;;;;;;;;;;;;;;;17.12;60.66;98410.44;3312206;29;19929;-73
2021/09/02 01:27:58;;;;;;;;;;;;;;;17.13;60.67;98412.06;3312900;29;20271;-72
2021/09/02 01:29:38;;;;;;;;;;;;;;;17.12;60.59;98416.63;3312412;29;19985;-72
2021/09/02 01:31:19;;;;;;;;;;;;;;;17.12;60.37;98415.84;3312773;29;20023;-72
2021/09/02 01:33:00;;;;;;;;;;;;;;;17.12;60.62;98421.22;3312862;29;19933;-73
2021/09/02 01:34:40;;;;;;;;;;;;;;;17.09;60.48;98411.78;3312758;29;20012;-70
2021/09/02 01:36:21;;;;;;;;;;;;;;;17.08;60.35;98412.84;3312594;29;19936;-71
2021/09/02 01:38:02;;;;;;;;;;;;;;;17.07;60.33;98413.94;3312660;29;20317;-71
2021/09/02 01:39:43;;;;;;;;;;;;;;;17.08;60.53;98410.16;3312487;29;20267;-72
2021/09/02 01:41:24;;;;;;;;;;;;;;;17.07;60.82;98419.31;3311704;29;20025;-73
2021/09/02 01:43:05;;;;;;;;;;;;;;;17.08;60.50;98412.03;3312327;29;19929;-70
2021/09/02 01:44:45;;;;;;;;;;;;;;;17.09;60.38;98424.41;3312640;29;19929;-70
2021/09/02 01:46:26;;;;;;;;;;;;;;;17.08;60.69;98422.81;3311466;29;19933;-71
2021/09/02 01:48:07;;;;;;;;;;;;;;;17.08;60.75;98425.50;3312285;29;20095;-70
2021/09/02 01:49:48;;;;;;;;;;;;;;;17.09;60.28;98425.25;3312619;29;20024;-73
2021/09/02 01:51:28;;;;;;;;;;;;;;;17.10;60.39;98428.75;3312815;29;19929;-74
2021/09/02 01:53:11;;;;;;;;;;;;;;;17.08;60.34;98431.69;3312539;29;19929;-71
2021/09/02 01:54:51;;;;;;;;;;;;;;;17.04;60.41;98424.41;3312703;29;19935;-71
2021/09/02 01:56:32;;;;;;;;;;;;;;;17.03;60.48;98422.81;3312448;29;19929;-71
2021/09/02 01:58:12;;;;;;;;;;;;;;;17.03;60.51;98428.19;3312679;29;19928;-72
2021/09/02 01:59:53;;;;;;;;;;;;;;;17.04;60.33;98430.63;3312440;29;19995;-73
2021/09/02 02:01:34;;;;;;;;;;;;;;;17.07;60.42;98430.09;3312649;29;19995;-71
2021/09/02 02:03:15;;;;;;;;;;;;;;;17.09;60.52;98427.13;3312744;29;19968;-71
2021/09/02 02:04:56;;;;;;;;;;;;;;;17.12;60.19;98431.97;3312449;29;19936;-72
2021/09/02 02:06:36;;;;;;;;;;;;;;;17.14;60.24;98427.13;3312140;29;20023;-70
2021/09/02 02:08:17;;;;;;;;;;;;;;;17.17;60.41;98429.28;3312589;29;19937;-71
2021/09/02 02:09:57;;;;;;;;;;;;;;;17.19;60.60;98433.34;3312439;29;19929;-71
2021/09/02 02:11:38;;;;;;;;;;;;;;;17.22;60.34;98437.38;3312504;29;20002;-71
2021/09/02 02:13:18;;;;;;;;;;;;;;;17.23;60.25;98428.22;3312411;29;20428;-72
2021/09/02 02:14:59;;;;;;;;;;;;;;;17.26;60.06;98429.56;3312344;29;20366;-73
2021/09/02 02:16:39;;;;;;;;;;;;;;;17.25;59.95;98436.84;3311435;29;19929;-73
2021/09/02 02:18:20;;;;;;;;;;;;;;;17.23;59.99;98428.22;3312283;29;19929;-71
2021/09/02 02:20:00;;;;;;;;;;;;;;;17.20;60.09;98426.06;3312532;29;20468;-71
2021/09/02 02:21:41;;;;;;;;;;;;;;;17.21;60.11;98427.66;3312227;29;19929;-71
2021/09/02 02:23:22;;;;;;;;;;;;;;;17.21;59.93;98430.34;3312056;29;19929;-71
2021/09/02 02:25:03;;;;;;;;;;;;;;;17.21;60.19;98431.16;3312402;29;19940;-71
2021/09/02 02:26:44;;;;;;;;;;;;;;;17.21;60.01;98438.44;3312229;29;20425;-71
2021/09/02 02:28:25;;;;;;;;;;;;;;;17.20;60.00;98434.94;3312390;29;19929;-71
2021/09/02 02:30:06;;;;;;;;;;;;;;;17.19;60.20;98437.88;3312383;29;19936;-72
2021/09/02 02:31:46;;;;;;;;;;;;;;;17.20;60.17;98436.84;3312278;29;19929;-73
2021/09/02 02:33:27;;;;;;;;;;;;;;;17.24;60.45;98443.28;3311343;29;19936;-72
2021/09/02 02:35:08;;;;;;;;;;;;;;;17.24;59.83;98440.59;3312175;29;19929;-73
2021/09/02 02:36:49;;;;;;;;;;;;;;;17.23;60.26;98439.78;3312495;29;19929;-72
2021/09/02 02:38:29;;;;;;;;;;;;;;;17.25;59.97;98436.03;3325736;29;19935;-71
2021/09/02 02:40:11;;;;;;;;;;;;;;;17.25;60.24;98436.84;3316726;29;19964;-71
2021/09/02 02:41:52;;;;;;;;;;;;;;;17.25;59.82;98436.84;3313950;29;19972;-72
2021/09/02 02:43:32;;;;;;;;;;;;;;;17.24;59.78;98437.88;3314537;29;20390;-71
2021/09/02 02:45:13;;;;;;;;;;;;;;;17.21;60.17;98441.13;3313762;29;19929;-72
2021/09/02 02:46:53;;;;;;;;;;;;;;;17.19;59.98;98432.50;3314561;29;19929;-72
2021/09/02 02:48:34;;;;;;;;;;;;;;;17.18;60.18;98433.59;3306680;29;19934;-72
2021/09/02 02:50:14;;;;;;;;;;;;;;;17.12;59.78;98438.16;3325901;29;19928;-73
2021/09/02 02:51:56;;;;;;;;;;;;;;;17.10;59.96;98434.13;3314667;29;19936;-71
2021/09/02 02:53:37;;;;;;;;;;;;;;;17.09;60.08;98438.72;3308549;29;19929;-72
2021/09/02 02:55:17;;;;;;;;;;;;;;;17.12;60.09;98437.38;3309653;29;20377;-70
2021/09/02 02:56:58;;;;;;;;;;;;;;;17.12;60.02;98440.88;3302052;29;19933;-72
2021/09/02 02:58:38;;;;;;;;;;;;;;;17.12;60.02;98442.75;3302555;29;19936;-72
2021/09/02 03:00:19;;;;;;;;;;;;;;;17.13;60.13;98444.34;3301781;29;20074;-72
2021/09/02 03:01:59;;;;;;;;;;;;;;;17.14;60.19;98441.41;3301779;29;20351;-70
2021/09/02 03:03:40;;;;;;;;;;;;;;;17.18;60.13;98452.44;3301971;29;19929;-71
2021/09/02 03:05:20;;;;;;;;;;;;;;;17.20;60.07;98450.28;3301756;29;19922;-72
2021/09/02 03:07:01;;;;;;;;;;;;;;;17.19;59.77;98444.09;3310314;29;19929;-73
2021/09/02 03:08:41;;;;;;;;;;;;;;;17.19;59.74;98444.09;3312073;29;19928;-73
2021/09/02 03:10:22;;;;;;;;;;;;;;;17.21;59.54;98441.94;3308833;29;20570;-71
2021/09/02 03:12:03;;;;;;;;;;;;;;;17.21;59.83;98451.91;3305242;29;20416;-72
2021/09/02 03:13:44;;;;;;;;;;;;;;;17.21;59.66;98446.50;3313470;29;20382;-70
2021/09/02 03:15:24;;;;;;;;;;;;;;;17.19;59.70;98454.03;3306385;29;19925;-71
2021/09/02 03:17:05;;;;;;;;;;;;;;;17.19;59.51;98448.66;3312516;29;20008;-71
2021/09/02 03:18:45;;;;;;;;;;;;;;;17.20;59.60;98458.38;3314132;29;20055;-71
2021/09/02 03:20:26;;;;;;;;;;;;;;;17.22;59.63;98458.91;3314126;29;19964;-73
2021/09/02 03:22:07;;;;;;;;;;;;;;;17.23;59.65;98447.88;3304535;29;21595;-73
2021/09/02 03:23:47;;;;;;;;;;;;;;;17.25;59.71;98458.38;3305820;29;20322;-71
2021/09/02 03:25:28;;;;;;;;;;;;;;;17.25;59.40;98465.66;3304965;29;19959;-71
2021/09/02 03:27:08;;;;;;;;;;;;;;;17.23;59.44;98460.53;3310399;29;19997;-72
2021/09/02 03:28:49;;;;;;;;;;;;;;;17.20;59.16;98456.47;3305219;29;19937;-71
2021/09/02 03:30:29;;;;;;;;;;;;;;;17.18;59.37;98455.94;3301419;29;19929;-71
2021/09/02 03:32:10;;;;;;;;;;;;;;;17.16;59.34;98459.97;3306041;29;19925;-72
2021/09/02 03:33:50;;;;;;;;;;;;;;;17.15;59.35;98458.38;3313934;29;20428;-70
2021/09/02 03:35:31;;;;;;;;;;;;;;;17.17;59.56;98457.03;3308449;29;19930;-72
2021/09/02 03:37:11;;;;;;;;;;;;;;;17.19;59.41;98464.81;3315301;29;20379;-72
2021/09/02 03:38:52;;;;;;;;;;;;;;;17.19;59.29;98457.56;3304345;29;19930;-72
2021/09/02 03:40:32;;;;;;;;;;;;;;;17.17;59.03;98461.59;3300402;29;19936;-72
2021/09/02 03:42:13;;;;;;;;;;;;;;;17.16;59.17;98454.59;3302360;29;19929;-71
2021/09/02 03:43:53;;;;;;;;;;;;;;;17.14;59.32;98460.25;3300956;29;19986;-72
2021/09/02 03:45:34;;;;;;;;;;;;;;;17.13;59.12;98465.91;3302255;29;19936;-71
2021/09/02 03:47:15;;;;;;;;;;;;;;;17.12;58.97;98459.72;3301354;29;20397;-72
2021/09/02 03:48:56;;;;;;;;;;;;;;;17.16;59.17;98465.34;3305089;29;20019;-72
2021/09/02 03:50:36;;;;;;;;;;;;;;;17.19;59.03;98464.81;3301227;29;20398;-73
2021/09/02 03:52:17;;;;;;;;;;;;;;;17.23;59.21;98469.41;3301037;29;20359;-71
2021/09/02 03:53:57;;;;;;;;;;;;;;;17.25;58.91;98466.47;3301101;29;19929;-71
2021/09/02 03:55:38;;;;;;;;;;;;;;;17.28;59.32;98465.91;3301132;29;19929;-72
2021/09/02 03:57:18;;;;;;;;;;;;;;;17.29;59.17;98462.13;3301152;29;19929;-72
2021/09/02 03:58:59;;;;;;;;;;;;;;;17.32;58.95;98461.63;3301461;29;19926;-73
2021/09/02 04:00:39;;;;;;;;;;;;;;;17.33;58.93;98459.72;3304118;29;19936;-71
2021/09/02 04:02:20;;;;;;;;;;;;;;;17.31;58.91;98459.97;3301161;29;19996;-71
2021/09/02 04:04:00;;;;;;;;;;;;;;;17.30;58.92;98458.38;3301652;29;19929;-72
2021/09/02 04:05:41;;;;;;;;;;;;;;;17.30;58.89;98466.47;3301109;29;20400;-72
2021/09/02 04:07:21;;;;;;;;;;;;;;;17.29;59.03;98459.44;3301344;29;19941;-73
2021/09/02 04:09:02;;;;;;;;;;;;;;;17.30;58.74;98461.06;3303315;29;19944;-74
2021/09/02 04:10:43;;;;;;;;;;;;;;;17.30;58.69;98466.47;3310865;29;19929;-72
2021/09/02 04:12:23;;;;;;;;;;;;;;;17.28;58.99;98460.53;3306580;29;19941;-72
2021/09/02 04:14:04;;;;;;;;;;;;;;;17.27;58.79;98456.22;3312560;29;19929;-74
2021/09/02 04:15:45;;;;;;;;;;;;;;;17.25;58.77;98460.25;3311421;29;19921;-72
2021/09/02 04:17:26;;;;;;;;;;;;;;;17.22;58.70;98465.09;3303184;29;19985;-72
2021/09/02 04:19:07;;;;;;;;;;;;;;;17.24;58.79;98464.81;3312613;29;20052;-70
2021/09/02 04:20:48;;;;;;;;;;;;;;;17.25;59.09;98477.22;3308427;29;19921;-72
2021/09/02 04:22:29;;;;;;;;;;;;;;;17.23;58.97;98479.38;3306076;29;19989;-71
2021/09/02 04:24:09;;;;;;;;;;;;;;;17.23;58.71;98484.75;3305789;29;19933;-72
2021/09/02 04:25:50;;;;;;;;;;;;;;;17.23;58.71;98482.06;3301373;29;19930;-73
2021/09/02 04:27:31;;;;;;;;;;;;;;;17.26;58.79;98475.34;3300772;29;20031;-72
2021/09/02 04:29:11;;;;;;;;;;;;;;;17.28;58.87;98475.88;3302129;29;20309;-72
2021/09/02 04:30:52;;;;;;;;;;;;;;;17.26;58.59;98472.66;3315943;29;20468;-72
2021/09/02 04:32:33;;;;;;;;;;;;;;;17.22;58.36;98475.88;3310704;29;19921;-72
2021/09/02 04:34:13;;;;;;;;;;;;;;;17.25;58.70;98471.84;3300740;29;19937;-74
2021/09/02 04:35:54;;;;;;;;;;;;;;;17.28;58.75;98478.56;3300843;29;19921;-73
2021/09/02 04:37:39;;;;;;;;;;;;;;;17.28;58.44;98474.00;3302718;29;20020;-73
2021/09/02 04:39:19;;;;;;;;;;;;;;;17.32;58.76;98475.09;3312796;29;19936;-72
2021/09/02 04:41:02;;;;;;;;;;;;;;;17.38;58.77;98482.06;3299820;29;19936;-71
2021/09/02 04:42:43;;;;;;;;;;;;;;;17.42;58.48;98485.88;3304593;29;20023;-73
2021/09/02 04:44:23;;;;;;;;;;;;;;;17.47;58.65;98481.53;3313304;29;19929;-75
2021/09/02 04:46:04;;;;;;;;;;;;;;;17.51;58.37;98479.94;3313147;29;19929;-72
2021/09/02 04:47:44;;;;;;;;;;;;;;;17.53;58.16;98480.44;3311219;29;19929;-73
2021/09/02 04:49:25;;;;;;;;;;;;;;;17.54;58.46;98476.69;3305473;29;19939;-74
2021/09/02 04:51:05;;;;;;;;;;;;;;;17.54;57.99;98482.09;3325290;29;19929;-71
2021/09/02 04:52:46;;;;;;;;;;;;;;;17.55;58.22;98473.72;3320870;29;19956;-73
2021/09/02 04:54:27;;;;;;;;;;;;;;;17.57;58.12;98486.94;3299517;30;20002;-73
2021/09/02 04:56:07;;;;;;;;;;;;;;;17.60;58.45;98476.41;3309297;29;19929;-71
2021/09/02 04:57:48;;;;;;;;;;;;;;;17.62;58.38;98484.22;3303002;29;21151;-72
2021/09/02 04:59:28;;;;;;;;;;;;;;;17.59;58.25;98490.16;3301091;29;20297;-72
2021/09/02 05:01:09;;;;;;;;;;;;;;;17.58;58.20;98489.38;3307026;29;20015;-72
2021/09/02 05:02:49;;;;;;;;;;;;;;;17.61;58.47;98480.72;3312916;29;19936;-73
2021/09/02 05:04:30;;;;;;;;;;;;;;;17.66;58.39;98493.41;3313035;29;20402;-73
2021/09/02 05:06:10;;;;;;;;;;;;;;;17.73;58.08;98488.53;3311260;29;19928;-72
2021/09/02 05:07:51;;;;;;;;;;;;;;;17.76;58.29;98488.00;3312608;29;19929;-73
2021/09/02 05:09:31;;;;;;;;;;;;;;;17.77;57.68;98492.31;3311735;29;19929;-73
2021/09/02 05:11:12;;;;;;;;;;;;;;;17.72;58.10;98486.91;3311534;29;20321;-73
2021/09/02 05:12:52;;;;;;;;;;;;;;;17.71;57.77;98488.00;3311672;29;19935;-71
2021/09/02 05:14:33;;;;;;;;;;;;;;;17.72;57.92;98491.50;3311051;29;19921;-75
2021/09/02 05:16:14;;;;;;;;;;;;;;;17.72;57.62;98495.00;3312461;29;19929;-72
2021/09/02 05:17:54;;;;;;;;;;;;;;;17.72;57.63;98489.63;3312820;29;20373;-72
2021/09/02 05:19:35;;;;;;;;;;;;;;;17.71;57.66;98490.72;3312606;29;19929;-77
2021/09/02 05:21:15;;;;;;;;;;;;;;;17.73;57.57;98493.13;3300137;29;20012;-73
2021/09/02 05:22:56;;;;;;;;;;;;;;;17.70;57.85;98489.06;3299908;29;19936;-74
2021/09/02 05:24:36;;;;;;;;;;;;;;;17.71;57.48;98482.63;3299785;29;19936;-72
2021/09/02 05:26:17;;;;;;;;;;;;;;;17.70;57.59;98486.38;3300364;29;19936;-71
2021/09/02 05:27:58;;;;;;;;;;;;;;;17.70;57.86;98486.38;3300167;29;19929;-73
2021/09/02 05:29:38;;;;;;;;;;;;;;;17.72;57.78;98484.22;3299282;30;19930;-73
2021/09/02 05:31:19;;;;;;;;;;;;;;;17.71;57.24;98487.19;3308360;29;20043;-71
2021/09/02 05:32:59;;;;;;;;;;;;;;;17.67;57.45;98485.03;3308941;29;20405;-72
2021/09/02 05:34:40;;;;;;;;;;;;;;;17.65;57.40;98489.06;3298724;30;19964;-72
2021/09/02 05:36:21;;;;;;;;;;;;;;;17.69;57.61;98486.66;3300097;30;20028;-73
2021/09/02 05:38:02;;;;;;;;;;;;;;;17.75;57.70;98491.75;3300157;29;19937;-74
2021/09/02 05:39:42;;;;;;;;;;;;;;;17.81;57.29;98496.13;3300180;29;20037;-73
2021/09/02 05:41:23;;;;;;;;;;;;;;;17.85;57.18;98494.47;3301671;29;19937;-73
2021/09/02 05:43:03;;;;;;;;;;;;;;;17.92;57.12;98493.41;3319506;29;19936;-73
2021/09/02 05:44:44;;;;;;;;;;;;;;;17.98;57.11;98495.00;3299014;29;19929;-73
2021/09/02 05:46:24;;;;;;;;;;;;;;;18.01;57.24;98499.84;3309167;29;19929;-73
2021/09/02 05:48:05;;;;;;;;;;;;;;;18.06;57.31;98497.16;3308613;29;20090;-76
2021/09/02 05:49:45;;;;;;;;;;;;;;;18.17;56.92;98506.03;3309764;29;21731;-72
2021/09/02 05:51:26;;;;;;;;;;;;;;;18.24;56.95;98506.53;3309871;29;20023;-73
2021/09/02 05:53:06;;;;;;;;;;;;;;;18.28;56.58;98497.63;3308125;29;19933;-74
2021/09/02 05:54:53;;;;;;;;;;;;;;;18.30;56.69;98502.75;3300579;29;19937;-73
2021/09/02 05:56:33;;;;;;;;;;;;;;;18.33;56.35;98496.00;3300845;29;20401;-72
2021/09/02 05:58:14;;;;;;;;;;;;;;;18.30;56.57;98503.56;3301607;29;19930;-73
2021/09/02 05:59:55;;;;;;;;;;;;;;;18.31;56.38;98497.09;3303680;29;19933;-73
2021/09/02 06:01:35;;;;;;;;;;;;;;;18.31;56.10;98505.19;3309735;29;20008;-72
2021/09/02 06:03:15;;;;;;;;;;;;;;;18.31;56.28;98513.28;3313187;29;19933;-72
2021/09/02 06:04:56;;;;;;;;;;;;;;;18.30;56.36;98513.53;3310557;29;19929;-71
2021/09/02 06:06:43;;;;;;;;;;;;;;;18.31;56.00;98517.88;3314210;29;19936;-72
2021/09/02 06:08:37;;;;;;;;;;;;;;;18.30;55.85;98516.22;3318279;29;20458;-74
2021/09/02 06:10:17;;;;;;;;;;;;;;;18.29;56.04;98518.13;3301117;29;19933;-72
2021/09/02 06:11:58;;;;;;;;;;;;;;;18.27;55.52;98517.59;3302060;29;19925;-72
2021/09/02 06:13:38;;;;;;;;;;;;;;;18.34;55.82;98527.28;3303209;29;19936;-71
2021/09/02 06:15:19;;;;;;;;;;;;;;;18.36;55.66;98520.53;3306673;29;20393;-73
2021/09/02 06:17:00;;;;;;;;;;;;;;;18.39;55.49;98516.50;3311242;29;19940;-76
2021/09/02 06:18:40;;;;;;;;;;;;;;;18.40;55.76;98532.38;3307385;29;19965;-75
2021/09/02 06:20:21;;;;;;;;;;;;;;;18.35;55.23;98518.13;3302735;29;20402;-76
2021/09/02 06:22:01;;;;;;;;;;;;;;;18.33;55.54;98526.50;3303107;29;20074;-76
2021/09/02 06:23:42;;;;;;;;;;;;;;;18.31;55.48;98529.44;3309935;29;20305;-76
2021/09/02 06:25:23;;;;;;;;;;;;;;;18.34;55.37;98532.69;3314917;29;20019;-77
2021/09/02 06:27:03;;;;;;;;;;;;;;;18.38;55.27;98533.75;3314815;29;19929;-78
2021/09/02 06:28:44;;;;;;;;;;;;;;;18.40;55.51;98534.28;3314897;29;19933;-75
2021/09/02 06:30:24;;;;;;;;;;;;;;;18.41;54.89;98533.22;3326331;29;19929;-75
2021/09/02 06:32:05;;;;;;;;;;;;;;;18.42;55.30;98540.22;3317386;29;19929;-77
2021/09/02 06:33:45;;;;;;;;;;;;;;;18.44;55.29;98541.56;3314475;29;20374;-77
2021/09/02 06:35:26;;;;;;;;;;;;;;;18.44;54.97;98535.38;3314640;29;20398;-76
2021/09/02 06:37:07;;;;;;;;;;;;;;;18.43;55.08;98547.22;3314861;29;20024;-75
2021/09/02 06:38:47;;;;;;;;;;;;;;;18.43;54.79;98544.53;3314586;29;19936;-75
2021/09/02 06:40:28;;;;;;;;;;;;;;;18.45;54.55;98545.06;3314638;29;20473;-76
2021/09/02 06:42:08;;;;;;;;;;;;;;;18.47;54.93;98549.09;3314271;29;20313;-76
2021/09/02 06:43:49;;;;;;;;;;;;;;;18.49;54.40;98549.66;3325799;29;19976;-76
2021/09/02 06:45:29;;;;;;;;;;;;;;;18.53;54.68;98553.41;3316750;29;19929;-77
2021/09/02 06:47:10;;;;;;;;;;;;;;;18.60;54.35;98547.72;3313501;29;19935;-78
2021/09/02 06:48:50;;;;;;;;;;;;;;;18.61;53.81;98546.66;3314073;29;20313;-76
2021/09/02 06:50:31;;;;;;;;;;;;;;;18.59;54.14;98550.72;3314474;29;19936;-76
2021/09/02 06:52:11;;;;;;;;;;;;;;;18.62;54.10;98552.84;3322856;29;19944;-76
2021/09/02 06:53:52;;;;;;;;;;;;;;;18.67;53.74;98556.34;3304618;29;19929;-77
2021/09/02 06:55:33;;;;;;;;;;;;;;;18.73;53.62;98563.31;3309647;29;19929;-77
2021/09/02 06:57:14;;;;;;;;;;;;;;;18.78;53.81;98561.72;3314362;29;19995;-76
2021/09/02 06:58:54;;;;;;;;;;;;;;;18.81;53.88;98558.47;3314934;29;19933;-76
2021/09/02 07:00:35;;;;;;;;;;;;;;;18.86;53.49;98566.53;3314121;29;19960;-76
2021/09/02 07:02:15;;;;;;;;;;;;;;;18.94;53.57;98565.97;3290748;30;19952;-76
2021/09/02 07:03:56;;;;;;;;;;;;;;;19.03;53.58;98567.03;3299337;30;19934;-75
2021/09/02 07:05:37;;;;;;;;;;;;;;;19.14;53.39;98568.56;3301906;29;19934;-75
2021/09/02 07:07:27;;;;;;;;;;;;;;;19.24;53.24;98561.50;3312882;29;20031;-76
2021/09/02 07:09:07;;;;;;;;;;;;;;;19.39;53.15;98564.13;3311727;29;20401;-78
2021/09/02 07:10:48;;;;;;;;;;;;;;;19.65;52.72;98561.25;3323512;29;20058;-79
2021/09/02 07:12:28;;;;;;;;;;;;;;;19.95;52.28;98566.41;3316528;29;19995;-78
2021/09/02 07:14:09;;;;;;;;;;;;;;;20.29;51.87;98570.16;3306419;29;19937;-76
2021/09/02 07:15:49;;;;;;;;;;;;;;;20.52;51.43;98563.16;3303105;29;19951;-76
2021/09/02 07:17:30;;;;;;;;;;;;;;;20.84;51.43;98570.69;3301344;29;19929;-78
2021/09/02 07:19:10;;;;;;;;;;;;;;;21.22;50.87;98568.84;3301792;29;19968;-76
2021/09/02 07:20:51;;;;;;;;;;;;;;;21.51;50.36;98573.34;3301060;30;20426;-77
2021/09/02 07:22:32;;;;;;;;;;;;;;;21.72;49.81;98576.56;3301653;29;19933;-78
2021/09/02 07:24:14;;;;;;;;;;;;;;;21.84;49.78;98579.63;3300828;29;20271;-76
2021/09/02 07:25:55;;;;;;;;;;;;;;;21.91;49.44;98576.53;3300970;29;19982;-77
2021/09/02 07:27:35;;;;;;;;;;;;;;;22.00;49.05;98574.75;3301601;29;20010;-75
2021/09/02 07:29:16;;;;;;;;;;;;;;;22.10;49.15;98574.59;3301697;29;19986;-75
2021/09/02 07:30:57;;;;;;;;;;;;;;;22.30;48.68;98578.06;3300602;29;19950;-76
2021/09/02 07:32:37;;;;;;;;;;;;;;;22.63;48.32;98573.38;3310781;29;20349;-77
2021/09/02 07:34:18;;;;;;;;;;;;;;;22.87;47.73;98570.44;3303779;29;20011;-79
2021/09/02 07:35:58;;;;;;;;;;;;;;;23.23;47.03;98580.59;3301443;29;19922;-77
2021/09/02 07:37:39;;;;;;;;;;;;;;;23.60;46.83;98581.41;3301238;29;19929;-77
2021/09/02 07:39:20;;;;;;;;;;;;;;;23.90;46.17;98586.13;3301467;29;20021;-78
2021/09/02 07:41:02;;;;;;;;;;;;;;;24.22;45.24;98578.03;3301506;29;19933;-76
2021/09/02 07:42:43;;;;;;;;;;;;;;;24.58;44.74;98583.38;3306906;29;20461;-78
2021/09/02 07:44:23;;;;;;;;;;;;;;;24.86;44.24;98580.41;3314127;29;19932;-78
2021/09/02 07:46:03;;;;;;;;;;;;;;;25.02;43.61;98589.75;3313835;29;20173;-79
2021/09/02 07:47:44;;;;;;;;;;;;;;;25.19;43.17;98581.63;3313326;29;19929;-78
2021/09/02 07:49:25;;;;;;;;;;;;;;;25.29;42.75;98583.25;3313777;29;19960;-78
2021/09/02 07:51:05;;;;;;;;;;;;;;;25.42;42.17;98579.56;3318939;29;19929;-74
2021/09/02 07:52:45;;;;;;;;;;;;;;;25.50;42.02;98574.44;3313540;29;20516;-77
2021/09/02 07:54:26;;;;;;;;;;;;;;;25.46;42.25;98574.28;3313490;29;19933;-76
2021/09/02 07:56:07;;;;;;;;;;;;;;;25.33;42.25;98580.72;3313328;29;19929;-75
2021/09/02 07:57:48;;;;;;;;;;;;;;;25.19;42.04;98578.09;3313779;29;19929;-76
2021/09/02 07:59:29;;;;;;;;;;;;;;;25.02;42.70;98578.84;3324985;29;19929;-74
2021/09/02 08:01:13;;;;;;;;;;;;;;;24.89;42.79;98577.06;3312462;29;20509;-77
2021/09/02 08:02:54;;;;;;;;;;;;;;;24.79;42.56;98578.94;3310695;29;19940;-75
2021/09/02 08:04:34;;;;;;;;;;;;;;;24.70;42.89;98580.81;3313535;29;19929;-78
2021/09/02 08:06:15;;;;;;;;;;;;;;;24.60;43.05;98578.38;3312545;29;20383;-79
2021/09/02 08:07:56;;;;;;;;;;;;;;;24.51;42.87;98580.28;3297925;29;19984;-75
2021/09/02 08:09:36;;;;;;;;;;;;;;;24.37;42.57;98577.63;3295554;30;19953;-79
2021/09/02 08:11:17;;;;;;;;;;;;;;;24.19;42.50;98576.75;3307503;29;20027;-76
2021/09/02 08:12:57;;;;;;;;;;;;;;;23.95;42.38;98587.94;3313370;29;19929;-78
2021/09/02 08:14:38;;;;;;;;;;;;;;;23.68;42.63;98588.84;3309683;29;20355;-77
2021/09/02 08:16:18;;;;;;;;;;;;;;;23.46;42.97;98582.25;3313688;29;19933;-79
2021/09/02 08:17:59;;;;;;;;;;;;;;;23.32;43.03;98576.06;3313667;29;19929;-80
2021/09/02 08:19:40;;;;;;;;;;;;;;;23.16;43.24;98582.94;3313993;29;20523;-78
2021/09/02 08:21:22;;;;;;;;;;;;;;;23.00;43.37;98585.97;3313489;29;20425;-79
2021/09/02 08:23:03;;;;;;;;;;;;;;;22.89;43.81;98589.16;3312625;29;19936;-78
2021/09/02 08:24:43;;;;;;;;;;;;;;;22.81;44.02;98582.53;3310063;29;19976;-79
2021/09/02 08:26:25;;;;;;;;;;;;;;;22.77;44.24;98576.91;3311439;29;19929;-78
2021/09/02 08:28:05;;;;;;;;;;;;;;;22.81;43.95;98585.25;3299981;29;19929;-78
2021/09/02 08:29:46;;;;;;;;;;;;;;;22.91;43.88;98582.31;3300828;30;19936;-80
2021/09/02 08:31:28;;;;;;;;;;;;;;;23.00;43.48;98579.72;3300270;30;19929;-79
2021/09/02 08:33:09;;;;;;;;;;;;;;;23.16;43.42;98582.94;3300760;30;19929;-78
2021/09/02 08:34:50;;;;;;;;;;;;;;;23.46;43.20;98587.69;3311893;29;20401;-79
2021/09/02 08:36:30;;;;;;;;;;;;;;;23.73;42.87;98575.94;3324970;29;19987;-75
2021/09/02 08:38:11;;;;;;;;;;;;;;;23.87;42.19;98581.31;3315357;29;19932;-76
2021/09/02 08:39:57;;;;;;;;;;;;;;;23.91;42.45;98582.31;3313188;29;19933;-75
2021/09/02 08:41:38;;;;;;;;;;;;;;;23.86;42.25;98581.66;3312417;29;19931;-76
2021/09/02 08:43:19;;;;;;;;;;;;;;;23.77;42.16;98584.28;3290140;29;19929;-75
2021/09/02 08:45:00;;;;;;;;;;;;;;;23.65;42.06;98584.03;3297568;30;19936;-74
2021/09/02 08:46:42;;;;;;;;;;;;;;;23.50;42.13;98583.25;3300795;29;19975;-77